Flight Track Log - Related Links

Times and Time Zones

All times are in EDT time to prevent confusion due to time zone crossing. See the SWA706 flight status page for this flight to view local times or setup timezone preferences in your user account.

Time Position Orientation Groundspeed Altitude Reporting Facility
EDT Latitude Longitude Course Direction KTS MPH feet Rate Location/Type
Sat 12:30:42 PM 29.6289 -95.2633 291° West 145 167 900  Level Houston Center
Sat 12:31:31 PM 29.5964 -95.2986 223° Southwest 233 268 2,900 2,966 Climbing Houston Center
Sat 12:32:09 PM 29.5792 -95.3361 242° Southwest 223 257 5,200 3,148 Climbing Houston Center
Sat 12:32:32 PM 29.5644 -95.3625 237° Southwest 253 291 6,100 2,516 Climbing Houston Center
Sat 12:33:11 PM 29.5528 -95.4125 255° West 273 314 7,800 2,760 Climbing Houston Center
Sat 12:34:12 PM 29.5939 -95.5022 298° West 316 364 10,700 2,341 Climbing Houston Center
Sat 12:35:14 PM 29.6456 -95.6097 299° West 381 438 12,600 2,565 Climbing Houston Center
Sat 12:36:00 PM 29.8907 -95.9552 291° West  Level FlightAware
Sat 12:36:16 PM 29.7008 -95.7214 300° West 402 463 16,000  Level Houston Center
Sat 12:37:18 PM 29.7572 -95.8386 299° West 415 478 18,900 2,613 Climbing Houston Center
Sat 12:38:20 PM 29.8139 -95.9564 299° West 420 483 21,400 1,984 Climbing Houston Center
Sat 12:39:22 PM 29.8861 -96.1036 300° West 437 503 23,000 1,258 Climbing Houston Center
Sat 12:40:24 PM 29.9250 -96.2328 289° West 431 496 24,000 1,597 Climbing Houston Center
Sat 12:41:26 PM 29.9628 -96.3667 288° West 439 505 26,300 2,419 Climbing Houston Center
Sat 12:42:28 PM 30.0011 -96.4989 289° West 439 505 29,000 2,390 Climbing Houston Center
Sat 12:43:29 PM 30.0361 -96.6256 288° West 424 488 31,200 1,854 Climbing Houston Center
Sat 12:44:31 PM 30.0728 -96.7522 289° West 417 480 32,800 1,694 Climbing Houston Center
Sat 12:45:33 PM 30.1144 -96.8967 288° West 415 478 34,700 1,597 Climbing Houston Center
Sat 12:46:35 PM 30.1497 -97.0297 287° West 422 486 36,100 1,403 Climbing Houston Center
Sat 12:47:37 PM 30.1867 -97.1597 288° West 422 486 37,600 919 Climbing Houston Center
Sat 12:48:39 PM 30.2219 -97.2900 287° West 419 482 38,000 194 Climbing Houston Center
Sat 12:49:41 PM 30.2583 -97.4181 288° West 415 478 38,000  Level Houston Center
Sat 12:50:43 PM 30.2928 -97.5464 287° West 413 475 38,000  Level Houston Center
Sat 12:51:44 PM 30.3392 -97.6922 290° West 409 471 38,000  Level Houston Center
Sat 12:52:46 PM 30.3975 -97.8125 299° West 419 482 38,000  Level Houston Center
Sat 12:53:48 PM 30.4531 -97.9314 298° West 416 479 38,000  Level Houston Center
Sat 12:54:50 PM 30.5094 -98.0503 299° West 416 479 38,000  Level Houston Center
Sat 12:55:52 PM 30.5639 -98.1692 298° West 412 474 38,000  Level Houston Center
Sat 12:56:54 PM 30.6206 -98.2875 299° West 413 475 38,000  Level Houston Center
Sat 12:57:56 PM 30.6747 -98.4050 298° West 411 473 38,000  Level Houston Center
Sat 12:58:57 PM 30.7303 -98.5222 299° West 409 471 38,000  Level Houston Center
Sat 12:59:59 PM 30.7844 -98.6411 298° West 412 474 38,000 532 Level Houston Center
Sat 01:01:01 PM 30.8497 -98.7808 299° West 415 478 39,100 968 Climbing Houston Center
Sat 01:02:03 PM 30.9047 -98.8997 298° West 414 476 40,000 435 Climbing Houston Center
Sat 01:03:05 PM 30.9592 -99.0186 298° West 413 475 40,000  Level Houston Center
Sat 01:04:07 PM 31.0128 -99.1364 298° West 409 471 40,000  Level Houston Center
Sat 01:05:09 PM 31.0692 -99.2603 298° West 410 472 40,000  Level Houston Center
Sat 01:06:10 PM 31.1225 -99.3775 298° West 411 473 40,000  Level Houston Center
Sat 01:07:12 PM 31.1744 -99.4914 298° West 400 460 40,000  Level Houston Center
Sat 01:08:14 PM 31.2239 -99.6022 298° West 388 447 40,000  Level Houston Center
Sat 01:09:16 PM 31.2772 -99.7189 298° West 402 463 40,000  Level Houston Center
Sat 01:10:18 PM 31.3278 -99.8319 298° West 394 453 40,000  Level Houston Center
Sat 01:11:20 PM 31.3886 -99.9675 298° West 393 452 40,000  Level Houston Center
Sat 01:12:22 PM 31.4406 -100.0833 298° West 402 463 40,000  Level Houston Center
Sat 01:13:23 PM 31.4925 -100.2003 298° West 405 466 40,000  Level Houston Center
Sat 01:14:25 PM 31.5450 -100.3167 298° West 407 468 40,000  Level Houston Center
Sat 01:15:22 PM 31.5983 -100.4450 296° West 400 460 40,000  Level Fort Center
Sat 01:16:22 PM 31.6478 -100.5614 297° West 400 460 40,000  Level Fort Center
Sat 01:17:22 PM 31.6972 -100.6656 299° West 400 460 40,000  Level Fort Center
Sat 01:18:22 PM 31.7486 -100.7822 297° West 400 460 40,000  Level Fort Center
Sat 01:19:22 PM 31.8017 -100.9014 298° West 400 460 40,000  Level Fort Center
Sat 01:20:22 PM 31.8525 -101.0208 297° West 400 460 40,000  Level Fort Center
Sat 01:21:22 PM 31.9075 -101.1428 298° West 411 473 40,000  Level Fort Center
Sat 01:22:22 PM 31.9581 -101.2600 297° West 411 473 40,000  Level Fort Center
Sat 01:23:22 PM 32.0086 -101.3797 296° West 411 473 40,000  Level Fort Center
Sat 01:24:22 PM 32.0611 -101.4997 297° West 411 473 40,000  Level Fort Center
Sat 01:25:22 PM 32.1114 -101.6219 296° West 411 473 40,000  Level Fort Center
Sat 01:26:22 PM 32.1575 -101.7394 295° West 411 473 40,000  Level Fort Center
Sat 01:27:22 PM 32.2097 -101.8572 298° West 405 466 40,000  Level Fort Center
Sat 01:28:22 PM 32.2597 -101.9778 296° West 405 466 40,000  Level Fort Center
Sat 01:29:22 PM 32.3097 -102.0958 297° West 405 466 40,000  Level Fort Center
Sat 01:30:22 PM 32.3575 -102.2114 296° West 405 466 40,000  Level Fort Center
Sat 01:31:22 PM 32.4131 -102.3372 298° West 412 474 40,000  Level Fort Center
Sat 01:32:22 PM 32.4628 -102.4556 296° West 417 480 40,000  Level Fort Center
Sat 01:33:22 PM 32.5153 -102.5967 294° West 412 474 40,000  Level Fort Center
Sat 01:34:22 PM 32.5669 -102.7128 298° West 412 474 40,000  Level Fort Center
Sat 01:35:22 PM 32.6161 -102.8317 296° West 412 474 40,000  Level Fort Center
Sat 01:36:22 PM 32.6653 -102.9481 297° West 407 468 40,000  Level Fort Center
Sat 01:37:22 PM 32.7122 -103.0622 296° West 401 461 40,000  Level Fort Center
Sat 01:38:22 PM 32.7653 -103.1839 297° West 401 461 40,000  Level Fort Center
Sat 01:40:44 PM 32.8653 -103.4444 295° West 406 467 40,000  Level Albuquerque Center
Sat 01:41:45 PM 32.9256 -103.5922 296° West 413 475 40,000  Level Albuquerque Center
Sat 01:42:47 PM 32.9781 -103.7211 296° West 415 478 40,000  Level Albuquerque Center
Sat 01:43:49 PM 33.0333 -103.8450 298° West 423 487 40,000  Level Albuquerque Center
Sat 01:44:51 PM 33.0833 -103.9803 294° West 417 480 40,000  Level Albuquerque Center
Sat 01:45:53 PM 33.1353 -104.1033 297° West 418 481 40,000  Level Albuquerque Center
Sat 01:46:55 PM 33.1864 -104.2372 295° West 414 476 40,000  Level Albuquerque Center
Sat 01:47:57 PM 33.2261 -104.3372 295° West 414 476 40,000  Level Albuquerque Center
Sat 01:48:59 PM 33.2853 -104.4886 295° West 418 481 40,000  Level Albuquerque Center
Sat 01:50:01 PM 33.3358 -104.6133 296° West 419 482 40,000  Level Albuquerque Center
Sat 01:51:02 PM 33.4275 -104.7267 314° West 424 488 40,000 -488 Level Albuquerque Center
Sat 01:52:04 PM 33.5119 -104.8261 316° Northwest 426 490 39,000 -919 Descending Albuquerque Center
Sat 01:53:06 PM 33.5992 -104.9272 316° Northwest 434 499 38,100 -968 Descending Albuquerque Center
Sat 01:54:08 PM 33.6906 -105.0344 316° Northwest 428 493 37,000 -968 Descending Albuquerque Center
Sat 01:55:10 PM 33.7756 -105.1342 316° Northwest 426 490 36,100 -968 Descending Albuquerque Center
Sat 01:56:12 PM 33.8692 -105.2406 317° Northwest 430 495 35,000 -927 Descending Albuquerque Center
Sat 01:57:13 PM 33.9508 -105.3381 315° West 434 499 34,200 -878 Descending Albuquerque Center
Sat 01:58:15 PM 34.0400 -105.4425 316° Northwest 439 505 33,200 -1,500 Descending Albuquerque Center
Sat 01:59:17 PM 34.1256 -105.5442 315° West 434 499 31,100 -1,742 Descending Albuquerque Center
Sat 02:00:19 PM 34.1925 -105.6550 306° West 419 482 29,600 -1,210 Descending Albuquerque Center
Sat 02:01:21 PM 34.2258 -105.7789 288° West 398 458 28,600 -1,694 Descending Albuquerque Center
Sat 02:02:23 PM 34.2692 -105.9244 290° West 392 451 26,100 -2,226 Descending Albuquerque Center
Sat 02:03:25 PM 34.3053 -106.0464 290° West 385 443 24,000 -2,051 Descending Albuquerque Center
Sat 02:03:42 PM 34.3142 -106.0794 288° West 377 434 23,400 -2,170 Descending Albuquerque Center
Sat 02:04:12 PM 34.3319 -106.1419 289° West 362 417 22,300 -2,143 Descending Albuquerque Center
Sat 02:05:06 PM 34.3631 -106.2444 290° West 350 403 20,400 -2,053 Descending Albuquerque Center
Sat 02:05:28 PM 34.3722 -106.2800 287° West 358 412 19,700 -1,967 Descending Albuquerque Center
Sat 02:06:07 PM 34.3936 -106.3550 289° West 345 397 18,400 -1,742 Descending Albuquerque Center
Sat 02:06:30 PM 34.4031 -106.3894 288° West 349 402 17,900 -2,361 Descending Albuquerque Center
Sat 02:07:08 PM 34.4347 -106.4550 300° West 348 400 16,000 -2,516 Descending Albuquerque Center
Sat 02:07:32 PM 34.4617 -106.4733 331° Northwest 355 409 15,300 -1,900 Descending Albuquerque Center
Sat 02:08:08 PM 34.5256 -106.4856 351° North 354 407 14,100 -1,935 Descending Albuquerque Center
Sat 02:08:34 PM 34.5569 -106.4903 353° North 349 402 13,300 -1,726 Descending Albuquerque Center
Sat 02:09:21 PM 34.6400 -106.5050 352° North 334 384 12,000 -722 Descending Albuquerque Center
Sat 02:10:22 PM 34.7192 -106.5181 352° North 269 310 12,000  Level Albuquerque Center
Sat 02:10:37 PM 34.7247 -106.5175 North 299 344 12,000 -800 Level Albuquerque Center
Sat 02:11:22 PM 34.7872 -106.5289 351° North 243 280 11,200 -968 Descending Albuquerque Center
Sat 02:11:39 PM 34.7947 -106.5283 North 268 308 11,000 -1,377 Descending Albuquerque Center
Sat 02:12:23 PM 34.8539 -106.5325 357° North 235 270 9,800 -1,355 Descending Albuquerque Center
Sat 02:12:41 PM 34.8736 -106.5300 North 249 287 9,600 -885 Descending Albuquerque Center
Sat 02:13:24 PM 34.9133 -106.5300 360° North 208 239 8,900 -1,180 Descending Albuquerque Center
Sat 02:13:42 PM 34.9314 -106.5253 12° North 229 264 8,400 -1,375 Descending Albuquerque Center
Sat 02:14:12 PM 34.9594 -106.5258 359° North 184 212 7,800 -1,065 Descending Albuquerque Center
Sat 02:14:44 PM 34.9817 -106.5236 North 204 235 7,300 -896 Descending Albuquerque Center
Sat 02:15:19 PM 35.0086 -106.5261 356° North 155 178 6,800 -774 Descending Albuquerque Center
Sat 02:15:46 PM 35.0256 -106.5239 North 179 206 6,500 -885 Descending Albuquerque Center
Sat 02:16:20 PM 35.0419 -106.5458 312° West 143 165 5,900 -787 Descending Albuquerque Center
Sat 02:16:47 PM 35.0439 -106.5572 282° West 152 175 5,700 -404 Descending Albuquerque Center
Sat 02:17:49 PM 35.0444 -106.6147 271° West 148 170 5,300 -387 Descending Albuquerque Center
Sat 02:19:00 PM 35.0402 -106.6092 North  Level Estimated

Login

Don't have an account? Register now (free) for customized features, flight alerts, and more!